sensor_id;sensor_type;location;lat;lon;timestamp;P1;durP1;ratioP1;P2;durP2;ratioP2
32780;SDS011;19136;47.032;15.502;2023-01-19T00:00:34;3.45;;;1.58;;
32780;SDS011;19136;47.032;15.502;2023-01-19T00:03:00;2.92;;;1.70;;
32780;SDS011;19136;47.032;15.502;2023-01-19T00:05:27;6.05;;;1.70;;
32780;SDS011;19136;47.032;15.502;2023-01-19T00:07:52;6.70;;;1.52;;
32780;SDS011;19136;47.032;15.502;2023-01-19T00:10:17;2.20;;;1.40;;
32780;SDS011;19136;47.032;15.502;2023-01-19T00:12:43;2.97;;;1.60;;
32780;SDS011;19136;47.032;15.502;2023-01-19T00:15:08;2.25;;;1.50;;
32780;SDS011;19136;47.032;15.502;2023-01-19T00:17:34;3.30;;;1.58;;
32780;SDS011;19136;47.032;15.502;2023-01-19T00:20:00;2.78;;;1.70;;
32780;SDS011;19136;47.032;15.502;2023-01-19T00:22:25;3.25;;;2.20;;
32780;SDS011;19136;47.032;15.502;2023-01-19T00:24:50;2.22;;;1.70;;
32780;SDS011;19136;47.032;15.502;2023-01-19T00:27:15;2.50;;;1.90;;
32780;SDS011;19136;47.032;15.502;2023-01-19T00:29:41;5.38;;;2.50;;
32780;SDS011;19136;47.032;15.502;2023-01-19T00:32:06;4.20;;;2.10;;
32780;SDS011;19136;47.032;15.502;2023-01-19T00:34:32;4.95;;;2.40;;
32780;SDS011;19136;47.032;15.502;2023-01-19T00:37:14;4.00;;;2.22;;
32780;SDS011;19136;47.032;15.502;2023-01-19T00:39:40;4.57;;;2.33;;
32780;SDS011;19136;47.032;15.502;2023-01-19T00:42:05;5.85;;;2.45;;
32780;SDS011;19136;47.032;15.502;2023-01-19T00:44:49;3.55;;;2.42;;
32780;SDS011;19136;47.032;15.502;2023-01-19T00:47:15;3.08;;;2.10;;
32780;SDS011;19136;47.032;15.502;2023-01-19T00:49:40;4.07;;;2.47;;
32780;SDS011;19136;47.032;15.502;2023-01-19T00:52:05;4.22;;;2.90;;
32780;SDS011;19136;47.032;15.502;2023-01-19T00:54:31;4.85;;;2.83;;
32780;SDS011;19136;47.032;15.502;2023-01-19T00:56:56;5.88;;;2.65;;
32780;SDS011;19136;47.032;15.502;2023-01-19T00:59:21;4.15;;;2.40;;
32780;SDS011;19136;47.032;15.502;2023-01-19T01:01:47;3.75;;;2.42;;
32780;SDS011;19136;47.032;15.502;2023-01-19T01:04:13;6.82;;;3.00;;
32780;SDS011;19136;47.032;15.502;2023-01-19T01:06:38;8.20;;;2.83;;
32780;SDS011;19136;47.032;15.502;2023-01-19T01:09:04;7.55;;;2.85;;
32780;SDS011;19136;47.032;15.502;2023-01-19T01:11:37;4.43;;;2.75;;
32780;SDS011;19136;47.032;15.502;2023-01-19T01:14:02;4.05;;;2.30;;
32780;SDS011;19136;47.032;15.502;2023-01-19T01:16:27;5.32;;;2.97;;
32780;SDS011;19136;47.032;15.502;2023-01-19T01:18:53;6.65;;;2.75;;
32780;SDS011;19136;47.032;15.502;2023-01-19T01:21:18;3.63;;;2.50;;
32780;SDS011;19136;47.032;15.502;2023-01-19T01:23:43;4.57;;;2.70;;
32780;SDS011;19136;47.032;15.502;2023-01-19T01:26:09;2.70;;;2.08;;
32780;SDS011;19136;47.032;15.502;2023-01-19T01:28:34;4.88;;;2.53;;
32780;SDS011;19136;47.032;15.502;2023-01-19T01:30:59;4.97;;;2.35;;
32780;SDS011;19136;47.032;15.502;2023-01-19T01:33:25;5.28;;;3.10;;
32780;SDS011;19136;47.032;15.502;2023-01-19T01:35:51;6.45;;;3.05;;
32780;SDS011;19136;47.032;15.502;2023-01-19T01:38:16;9.27;;;3.47;;
32780;SDS011;19136;47.032;15.502;2023-01-19T01:40:42;9.98;;;3.70;;
32780;SDS011;19136;47.032;15.502;2023-01-19T01:43:10;5.15;;;3.13;;
32780;SDS011;19136;47.032;15.502;2023-01-19T01:45:36;13.95;;;3.95;;
32780;SDS011;19136;47.032;15.502;2023-01-19T01:48:13;9.35;;;4.05;;
32780;SDS011;19136;47.032;15.502;2023-01-19T01:50:42;7.95;;;4.00;;
32780;SDS011;19136;47.032;15.502;2023-01-19T01:53:29;15.40;;;6.05;;
32780;SDS011;19136;47.032;15.502;2023-01-19T01:55:56;10.35;;;5.28;;
32780;SDS011;19136;47.032;15.502;2023-01-19T01:58:22;7.70;;;4.60;;
32780;SDS011;19136;47.032;15.502;2023-01-19T02:00:48;8.45;;;3.90;;
32780;SDS011;19136;47.032;15.502;2023-01-19T02:03:31;12.00;;;5.30;;
32780;SDS011;19136;47.032;15.502;2023-01-19T02:05:58;8.02;;;3.63;;
32780;SDS011;19136;47.032;15.502;2023-01-19T02:08:33;6.18;;;3.80;;
32780;SDS011;19136;47.032;15.502;2023-01-19T02:11:18;7.28;;;3.95;;
32780;SDS011;19136;47.032;15.502;2023-01-19T02:14:03;8.50;;;4.50;;
32780;SDS011;19136;47.032;15.502;2023-01-19T02:16:28;6.03;;;4.07;;
32780;SDS011;19136;47.032;15.502;2023-01-19T02:18:54;7.07;;;4.25;;
32780;SDS011;19136;47.032;15.502;2023-01-19T02:21:24;8.15;;;4.57;;
32780;SDS011;19136;47.032;15.502;2023-01-19T02:23:54;9.43;;;5.68;;
32780;SDS011;19136;47.032;15.502;2023-01-19T02:26:24;11.52;;;6.60;;
32780;SDS011;19136;47.032;15.502;2023-01-19T02:28:51;9.88;;;5.72;;
32780;SDS011;19136;47.032;15.502;2023-01-19T02:31:17;7.43;;;4.93;;
32780;SDS011;19136;47.032;15.502;2023-01-19T02:33:43;8.40;;;5.07;;
32780;SDS011;19136;47.032;15.502;2023-01-19T02:36:08;8.95;;;4.40;;
32780;SDS011;19136;47.032;15.502;2023-01-19T02:38:35;7.40;;;4.60;;
32780;SDS011;19136;47.032;15.502;2023-01-19T02:41:01;7.45;;;5.28;;
32780;SDS011;19136;47.032;15.502;2023-01-19T02:43:28;11.07;;;4.88;;
32780;SDS011;19136;47.032;15.502;2023-01-19T02:45:54;8.65;;;4.97;;
32780;SDS011;19136;47.032;15.502;2023-01-19T02:48:20;8.43;;;5.13;;
32780;SDS011;19136;47.032;15.502;2023-01-19T02:50:46;8.43;;;5.20;;
32780;SDS011;19136;47.032;15.502;2023-01-19T03:06:45;13.77;;;5.95;;
32780;SDS011;19136;47.032;15.502;2023-01-19T03:12:00;11.82;;;5.25;;
32780;SDS011;19136;47.032;15.502;2023-01-19T03:14:27;15.35;;;5.60;;
32780;SDS011;19136;47.032;15.502;2023-01-19T03:16:53;13.77;;;6.97;;
32780;SDS011;19136;47.032;15.502;2023-01-19T03:19:27;15.10;;;4.93;;
32780;SDS011;19136;47.032;15.502;2023-01-19T03:24:18;14.73;;;4.88;;
32780;SDS011;19136;47.032;15.502;2023-01-19T03:26:50;11.45;;;5.65;;
32780;SDS011;19136;47.032;15.502;2023-01-19T03:29:16;10.85;;;5.22;;
32780;SDS011;19136;47.032;15.502;2023-01-19T03:31:43;8.60;;;5.00;;
32780;SDS011;19136;47.032;15.502;2023-01-19T03:34:10;10.43;;;5.57;;
32780;SDS011;19136;47.032;15.502;2023-01-19T03:36:39;14.43;;;5.78;;
32780;SDS011;19136;47.032;15.502;2023-01-19T03:39:06;10.55;;;6.20;;
32780;SDS011;19136;47.032;15.502;2023-01-19T03:41:33;10.50;;;6.22;;
32780;SDS011;19136;47.032;15.502;2023-01-19T03:44:00;16.48;;;7.57;;
32780;SDS011;19136;47.032;15.502;2023-01-19T03:46:25;9.60;;;5.82;;
32780;SDS011;19136;47.032;15.502;2023-01-19T03:48:51;11.38;;;6.13;;
32780;SDS011;19136;47.032;15.502;2023-01-19T03:51:16;9.60;;;6.05;;
32780;SDS011;19136;47.032;15.502;2023-01-19T03:53:43;10.10;;;5.82;;
32780;SDS011;19136;47.032;15.502;2023-01-19T03:56:19;13.13;;;6.68;;
32780;SDS011;19136;47.032;15.502;2023-01-19T03:58:45;9.07;;;5.88;;
32780;SDS011;19136;47.032;15.502;2023-01-19T04:01:10;14.20;;;6.70;;
32780;SDS011;19136;47.032;15.502;2023-01-19T04:03:35;9.43;;;6.07;;
32780;SDS011;19136;47.032;15.502;2023-01-19T04:06:01;15.00;;;6.97;;
32780;SDS011;19136;47.032;15.502;2023-01-19T04:08:26;12.70;;;6.03;;
32780;SDS011;19136;47.032;15.502;2023-01-19T04:10:52;15.15;;;5.57;;
32780;SDS011;19136;47.032;15.502;2023-01-19T04:13:17;16.02;;;6.97;;
32780;SDS011;19136;47.032;15.502;2023-01-19T04:15:42;13.30;;;5.80;;
32780;SDS011;19136;47.032;15.502;2023-01-19T04:18:08;14.80;;;6.60;;
32780;SDS011;19136;47.032;15.502;2023-01-19T04:20:33;10.23;;;6.03;;
32780;SDS011;19136;47.032;15.502;2023-01-19T04:22:59;8.60;;;5.50;;
32780;SDS011;19136;47.032;15.502;2023-01-19T04:25:25;7.60;;;5.07;;
32780;SDS011;19136;47.032;15.502;2023-01-19T04:27:51;12.00;;;5.28;;
32780;SDS011;19136;47.032;15.502;2023-01-19T04:30:16;8.82;;;5.05;;
32780;SDS011;19136;47.032;15.502;2023-01-19T04:32:42;12.80;;;5.18;;
32780;SDS011;19136;47.032;15.502;2023-01-19T04:35:08;7.43;;;4.57;;
32780;SDS011;19136;47.032;15.502;2023-01-19T04:37:33;8.38;;;4.13;;
32780;SDS011;19136;47.032;15.502;2023-01-19T04:39:59;7.82;;;4.25;;
32780;SDS011;19136;47.032;15.502;2023-01-19T04:42:24;6.03;;;4.07;;
32780;SDS011;19136;47.032;15.502;2023-01-19T04:44:51;6.10;;;4.28;;
32780;SDS011;19136;47.032;15.502;2023-01-19T04:47:16;7.70;;;3.63;;
32780;SDS011;19136;47.032;15.502;2023-01-19T04:49:42;11.43;;;3.88;;
32780;SDS011;19136;47.032;15.502;2023-01-19T04:52:07;13.65;;;4.53;;
32780;SDS011;19136;47.032;15.502;2023-01-19T04:54:33;13.57;;;5.20;;
32780;SDS011;19136;47.032;15.502;2023-01-19T04:56:58;21.80;;;5.53;;
32780;SDS011;19136;47.032;15.502;2023-01-19T04:59:23;30.42;;;5.40;;
32780;SDS011;19136;47.032;15.502;2023-01-19T05:01:49;40.30;;;5.47;;
32780;SDS011;19136;47.032;15.502;2023-01-19T05:04:14;14.40;;;5.25;;
32780;SDS011;19136;47.032;15.502;2023-01-19T05:06:40;21.27;;;5.68;;
32780;SDS011;19136;47.032;15.502;2023-01-19T05:09:05;23.63;;;5.47;;
32780;SDS011;19136;47.032;15.502;2023-01-19T05:11:33;13.70;;;4.65;;
32780;SDS011;19136;47.032;15.502;2023-01-19T05:13:58;9.82;;;4.30;;
32780;SDS011;19136;47.032;15.502;2023-01-19T05:16:24;12.02;;;4.45;;
32780;SDS011;19136;47.032;15.502;2023-01-19T05:18:49;10.38;;;3.83;;
32780;SDS011;19136;47.032;15.502;2023-01-19T05:21:14;6.07;;;3.90;;
32780;SDS011;19136;47.032;15.502;2023-01-19T05:23:40;4.45;;;2.97;;
32780;SDS011;19136;47.032;15.502;2023-01-19T05:26:05;4.35;;;2.80;;
32780;SDS011;19136;47.032;15.502;2023-01-19T05:28:31;7.63;;;2.90;;
32780;SDS011;19136;47.032;15.502;2023-01-19T05:30:56;4.78;;;3.03;;
32780;SDS011;19136;47.032;15.502;2023-01-19T05:33:22;4.18;;;2.67;;
32780;SDS011;19136;47.032;15.502;2023-01-19T05:35:51;6.93;;;3.03;;
32780;SDS011;19136;47.032;15.502;2023-01-19T05:38:16;4.50;;;3.00;;
32780;SDS011;19136;47.032;15.502;2023-01-19T05:40:42;5.80;;;3.03;;
32780;SDS011;19136;47.032;15.502;2023-01-19T05:43:08;5.55;;;3.30;;
32780;SDS011;19136;47.032;15.502;2023-01-19T05:45:33;9.25;;;4.65;;
32780;SDS011;19136;47.032;15.502;2023-01-19T05:47:59;8.45;;;4.38;;
32780;SDS011;19136;47.032;15.502;2023-01-19T05:50:24;4.78;;;3.30;;
32780;SDS011;19136;47.032;15.502;2023-01-19T05:52:50;7.55;;;3.10;;
32780;SDS011;19136;47.032;15.502;2023-01-19T05:55:17;4.30;;;2.80;;
32780;SDS011;19136;47.032;15.502;2023-01-19T05:57:43;3.20;;;2.40;;
32780;SDS011;19136;47.032;15.502;2023-01-19T06:00:08;3.60;;;2.42;;
32780;SDS011;19136;47.032;15.502;2023-01-19T06:02:34;4.78;;;2.42;;
32780;SDS011;19136;47.032;15.502;2023-01-19T06:04:59;3.83;;;2.40;;
32780;SDS011;19136;47.032;15.502;2023-01-19T06:07:24;2.75;;;2.00;;
32780;SDS011;19136;47.032;15.502;2023-01-19T06:09:50;3.92;;;2.30;;
32780;SDS011;19136;47.032;15.502;2023-01-19T06:12:15;3.92;;;2.55;;
32780;SDS011;19136;47.032;15.502;2023-01-19T06:14:41;4.00;;;2.00;;
32780;SDS011;19136;47.032;15.502;2023-01-19T06:17:06;3.70;;;2.17;;
32780;SDS011;19136;47.032;15.502;2023-01-19T06:19:32;4.35;;;2.50;;
32780;SDS011;19136;47.032;15.502;2023-01-19T06:21:57;3.38;;;2.20;;
32780;SDS011;19136;47.032;15.502;2023-01-19T06:24:23;3.80;;;2.00;;
32780;SDS011;19136;47.032;15.502;2023-01-19T06:26:49;2.33;;;1.92;;
32780;SDS011;19136;47.032;15.502;2023-01-19T06:29:14;3.15;;;2.03;;
32780;SDS011;19136;47.032;15.502;2023-01-19T06:31:40;3.20;;;2.00;;
32780;SDS011;19136;47.032;15.502;2023-01-19T06:34:06;2.65;;;1.73;;
32780;SDS011;19136;47.032;15.502;2023-01-19T06:36:31;2.65;;;1.75;;
32780;SDS011;19136;47.032;15.502;2023-01-19T06:38:56;3.30;;;1.58;;
32780;SDS011;19136;47.032;15.502;2023-01-19T06:41:22;3.05;;;2.17;;
32780;SDS011;19136;47.032;15.502;2023-01-19T06:43:47;3.67;;;2.63;;
32780;SDS011;19136;47.032;15.502;2023-01-19T06:46:14;5.25;;;2.85;;
32780;SDS011;19136;47.032;15.502;2023-01-19T06:48:39;5.15;;;2.50;;
32780;SDS011;19136;47.032;15.502;2023-01-19T06:51:05;3.38;;;2.33;;
32780;SDS011;19136;47.032;15.502;2023-01-19T06:53:31;3.38;;;2.17;;
32780;SDS011;19136;47.032;15.502;2023-01-19T06:55:59;3.78;;;2.45;;
32780;SDS011;19136;47.032;15.502;2023-01-19T06:58:26;3.92;;;2.17;;
32780;SDS011;19136;47.032;15.502;2023-01-19T07:00:51;3.92;;;2.30;;
32780;SDS011;19136;47.032;15.502;2023-01-19T07:03:18;3.05;;;2.03;;
32780;SDS011;19136;47.032;15.502;2023-01-19T07:05:43;3.72;;;2.13;;
32780;SDS011;19136;47.032;15.502;2023-01-19T07:08:09;2.58;;;1.67;;
32780;SDS011;19136;47.032;15.502;2023-01-19T07:10:34;3.92;;;2.22;;
32780;SDS011;19136;47.032;15.502;2023-01-19T07:13:00;4.05;;;2.75;;
32780;SDS011;19136;47.032;15.502;2023-01-19T07:15:25;6.35;;;3.20;;
32780;SDS011;19136;47.032;15.502;2023-01-19T07:17:50;7.55;;;3.83;;
32780;SDS011;19136;47.032;15.502;2023-01-19T07:20:16;9.63;;;3.85;;
32780;SDS011;19136;47.032;15.502;2023-01-19T07:22:44;12.30;;;4.78;;
32780;SDS011;19136;47.032;15.502;2023-01-19T07:25:10;7.90;;;3.60;;
32780;SDS011;19136;47.032;15.502;2023-01-19T07:27:36;8.55;;;4.13;;
32780;SDS011;19136;47.032;15.502;2023-01-19T07:30:01;8.85;;;5.00;;
32780;SDS011;19136;47.032;15.502;2023-01-19T07:32:28;7.97;;;4.60;;
32780;SDS011;19136;47.032;15.502;2023-01-19T07:34:54;9.80;;;4.60;;
32780;SDS011;19136;47.032;15.502;2023-01-19T07:37:19;10.32;;;4.65;;
32780;SDS011;19136;47.032;15.502;2023-01-19T07:39:45;11.05;;;5.30;;
32780;SDS011;19136;47.032;15.502;2023-01-19T07:42:10;5.07;;;3.00;;
32780;SDS011;19136;47.032;15.502;2023-01-19T07:44:36;5.55;;;2.92;;
32780;SDS011;19136;47.032;15.502;2023-01-19T07:47:02;4.03;;;2.45;;
32780;SDS011;19136;47.032;15.502;2023-01-19T07:49:27;3.90;;;2.25;;
32780;SDS011;19136;47.032;15.502;2023-01-19T07:51:53;4.25;;;2.20;;
32780;SDS011;19136;47.032;15.502;2023-01-19T07:54:20;4.25;;;2.53;;
32780;SDS011;19136;47.032;15.502;2023-01-19T07:56:45;3.22;;;2.28;;
32780;SDS011;19136;47.032;15.502;2023-01-19T07:59:11;4.57;;;1.98;;
32780;SDS011;19136;47.032;15.502;2023-01-19T08:01:36;4.95;;;2.42;;
32780;SDS011;19136;47.032;15.502;2023-01-19T08:04:02;6.53;;;2.45;;
32780;SDS011;19136;47.032;15.502;2023-01-19T08:06:31;4.82;;;2.55;;
32780;SDS011;19136;47.032;15.502;2023-01-19T08:08:57;4.43;;;2.80;;
32780;SDS011;19136;47.032;15.502;2023-01-19T08:11:23;4.07;;;2.25;;
32780;SDS011;19136;47.032;15.502;2023-01-19T08:13:48;3.05;;;1.90;;
32780;SDS011;19136;47.032;15.502;2023-01-19T08:16:13;3.65;;;1.85;;
32780;SDS011;19136;47.032;15.502;2023-01-19T08:18:39;3.03;;;1.90;;
32780;SDS011;19136;47.032;15.502;2023-01-19T08:21:04;3.42;;;1.90;;
32780;SDS011;19136;47.032;15.502;2023-01-19T08:23:29;3.45;;;2.33;;
32780;SDS011;19136;47.032;15.502;2023-01-19T08:25:55;4.50;;;2.15;;
32780;SDS011;19136;47.032;15.502;2023-01-19T08:28:20;3.40;;;1.83;;
32780;SDS011;19136;47.032;15.502;2023-01-19T08:30:47;4.32;;;2.20;;
32780;SDS011;19136;47.032;15.502;2023-01-19T08:33:18;4.63;;;2.30;;
32780;SDS011;19136;47.032;15.502;2023-01-19T08:35:45;2.60;;;2.00;;
32780;SDS011;19136;47.032;15.502;2023-01-19T08:38:11;3.90;;;1.70;;
32780;SDS011;19136;47.032;15.502;2023-01-19T08:40:38;4.70;;;3.00;;
32780;SDS011;19136;47.032;15.502;2023-01-19T08:43:08;4.43;;;2.20;;
32780;SDS011;19136;47.032;15.502;2023-01-19T08:45:37;3.15;;;1.92;;
32780;SDS011;19136;47.032;15.502;2023-01-19T08:48:05;2.05;;;1.55;;
32780;SDS011;19136;47.032;15.502;2023-01-19T08:50:31;3.00;;;1.80;;
32780;SDS011;19136;47.032;15.502;2023-01-19T08:52:57;3.60;;;2.05;;
32780;SDS011;19136;47.032;15.502;2023-01-19T08:55:24;3.33;;;2.10;;
32780;SDS011;19136;47.032;15.502;2023-01-19T08:57:50;3.65;;;2.03;;
32780;SDS011;19136;47.032;15.502;2023-01-19T09:00:15;3.65;;;2.83;;
32780;SDS011;19136;47.032;15.502;2023-01-19T09:02:41;5.13;;;2.75;;
32780;SDS011;19136;47.032;15.502;2023-01-19T09:05:06;5.70;;;3.25;;
32780;SDS011;19136;47.032;15.502;2023-01-19T09:07:31;6.68;;;3.38;;
32780;SDS011;19136;47.032;15.502;2023-01-19T09:09:57;10.43;;;4.70;;
32780;SDS011;19136;47.032;15.502;2023-01-19T09:12:22;6.90;;;4.10;;
32780;SDS011;19136;47.032;15.502;2023-01-19T09:14:47;13.18;;;4.55;;
32780;SDS011;19136;47.032;15.502;2023-01-19T09:17:13;8.98;;;4.25;;
32780;SDS011;19136;47.032;15.502;2023-01-19T09:19:41;9.25;;;4.05;;
32780;SDS011;19136;47.032;15.502;2023-01-19T09:22:06;9.00;;;3.97;;
32780;SDS011;19136;47.032;15.502;2023-01-19T09:24:32;6.55;;;2.92;;
32780;SDS011;19136;47.032;15.502;2023-01-19T09:26:59;4.80;;;2.70;;
32780;SDS011;19136;47.032;15.502;2023-01-19T09:29:24;3.00;;;1.80;;
32780;SDS011;19136;47.032;15.502;2023-01-19T09:31:50;7.25;;;2.67;;
32780;SDS011;19136;47.032;15.502;2023-01-19T09:34:15;4.40;;;2.60;;
32780;SDS011;19136;47.032;15.502;2023-01-19T09:36:41;4.40;;;3.00;;
32780;SDS011;19136;47.032;15.502;2023-01-19T09:39:09;15.00;;;10.63;;
32780;SDS011;19136;47.032;15.502;2023-01-19T09:41:35;6.18;;;3.78;;
32780;SDS011;19136;47.032;15.502;2023-01-19T09:44:00;2.85;;;1.98;;
32780;SDS011;19136;47.032;15.502;2023-01-19T09:46:34;5.50;;;3.08;;
32780;SDS011;19136;47.032;15.502;2023-01-19T09:49:04;3.10;;;1.80;;
32780;SDS011;19136;47.032;15.502;2023-01-19T09:51:32;3.22;;;1.80;;
32780;SDS011;19136;47.032;15.502;2023-01-19T09:56:28;3.05;;;1.58;;
32780;SDS011;19136;47.032;15.502;2023-01-19T09:58:54;2.20;;;1.50;;
32780;SDS011;19136;47.032;15.502;2023-01-19T10:06:37;2.90;;;1.77;;
32780;SDS011;19136;47.032;15.502;2023-01-19T10:09:08;3.63;;;1.92;;
32780;SDS011;19136;47.032;15.502;2023-01-19T10:11:38;5.45;;;1.80;;
32780;SDS011;19136;47.032;15.502;2023-01-19T10:14:08;7.03;;;1.88;;
32780;SDS011;19136;47.032;15.502;2023-01-19T10:19:37;3.63;;;1.70;;
32780;SDS011;19136;47.032;15.502;2023-01-19T10:25:00;3.30;;;1.67;;
32780;SDS011;19136;47.032;15.502;2023-01-19T10:27:30;5.88;;;2.20;;
32780;SDS011;19136;47.032;15.502;2023-01-19T10:29:58;2.90;;;1.60;;
32780;SDS011;19136;47.032;15.502;2023-01-19T10:32:28;6.10;;;2.00;;
32780;SDS011;19136;47.032;15.502;2023-01-19T10:34:54;3.95;;;2.05;;
32780;SDS011;19136;47.032;15.502;2023-01-19T10:40:01;3.38;;;1.83;;
32780;SDS011;19136;47.032;15.502;2023-01-19T10:42:40;2.47;;;1.50;;
32780;SDS011;19136;47.032;15.502;2023-01-19T10:45:24;6.25;;;2.60;;
32780;SDS011;19136;47.032;15.502;2023-01-19T10:47:51;5.93;;;2.40;;
32780;SDS011;19136;47.032;15.502;2023-01-19T10:50:21;6.97;;;2.05;;
32780;SDS011;19136;47.032;15.502;2023-01-19T10:52:51;7.97;;;4.38;;
32780;SDS011;19136;47.032;15.502;2023-01-19T10:55:25;8.95;;;4.55;;
32780;SDS011;19136;47.032;15.502;2023-01-19T10:57:51;11.73;;;5.35;;
32780;SDS011;19136;47.032;15.502;2023-01-19T11:00:37;12.70;;;5.68;;
32780;SDS011;19136;47.032;15.502;2023-01-19T11:05:48;3.22;;;2.38;;
32780;SDS011;19136;47.032;15.502;2023-01-19T11:08:27;7.80;;;3.90;;
32780;SDS011;19136;47.032;15.502;2023-01-19T11:10:54;7.40;;;3.80;;
32780;SDS011;19136;47.032;15.502;2023-01-19T11:13:21;7.55;;;4.80;;
32780;SDS011;19136;47.032;15.502;2023-01-19T11:15:54;12.85;;;6.00;;
32780;SDS011;19136;47.032;15.502;2023-01-19T11:18:28;9.35;;;5.80;;
32780;SDS011;19136;47.032;15.502;2023-01-19T11:20:55;10.88;;;6.72;;
32780;SDS011;19136;47.032;15.502;2023-01-19T11:23:27;10.27;;;6.32;;
32780;SDS011;19136;47.032;15.502;2023-01-19T11:25:57;13.25;;;6.80;;
32780;SDS011;19136;47.032;15.502;2023-01-19T11:33:34;10.93;;;6.78;;
32780;SDS011;19136;47.032;15.502;2023-01-19T11:36:06;12.18;;;7.43;;
32780;SDS011;19136;47.032;15.502;2023-01-19T11:38:31;14.65;;;6.90;;
32780;SDS011;19136;47.032;15.502;2023-01-19T11:41:04;11.93;;;6.97;;
32780;SDS011;19136;47.032;15.502;2023-01-19T11:43:30;10.45;;;5.78;;
32780;SDS011;19136;47.032;15.502;2023-01-19T11:45:56;10.02;;;6.15;;
32780;SDS011;19136;47.032;15.502;2023-01-19T11:48:30;12.32;;;7.50;;
32780;SDS011;19136;47.032;15.502;2023-01-19T11:50:58;13.00;;;7.82;;
32780;SDS011;19136;47.032;15.502;2023-01-19T11:53:25;14.80;;;8.27;;
32780;SDS011;19136;47.032;15.502;2023-01-19T11:58:25;11.18;;;7.32;;
32780;SDS011;19136;47.032;15.502;2023-01-19T12:05:42;3.67;;;2.10;;
32780;SDS011;19136;47.032;15.502;2023-01-19T12:08:18;2.38;;;1.55;;
32780;SDS011;19136;47.032;15.502;2023-01-19T12:10:45;5.28;;;1.40;;
32780;SDS011;19136;47.032;15.502;2023-01-19T12:13:20;3.92;;;2.00;;
32780;SDS011;19136;47.032;15.502;2023-01-19T12:15:46;2.20;;;1.40;;
32780;SDS011;19136;47.032;15.502;2023-01-19T12:18:16;2.67;;;1.60;;
32780;SDS011;19136;47.032;15.502;2023-01-19T12:20:43;2.70;;;1.38;;
32780;SDS011;19136;47.032;15.502;2023-01-19T12:28:11;3.30;;;1.73;;
32780;SDS011;19136;47.032;15.502;2023-01-19T12:30:36;3.58;;;1.50;;
32780;SDS011;19136;47.032;15.502;2023-01-19T12:41:44;2.60;;;1.40;;
32780;SDS011;19136;47.032;15.502;2023-01-19T12:43:44;2.67;;;1.70;;
32780;SDS011;19136;47.032;15.502;2023-01-19T12:46:25;2.47;;;1.60;;
32780;SDS011;19136;47.032;15.502;2023-01-19T12:49:02;2.13;;;1.50;;
32780;SDS011;19136;47.032;15.502;2023-01-19T12:51:28;2.83;;;1.80;;
32780;SDS011;19136;47.032;15.502;2023-01-19T12:53:54;3.45;;;1.60;;
32780;SDS011;19136;47.032;15.502;2023-01-19T12:56:31;1.92;;;1.48;;
32780;SDS011;19136;47.032;15.502;2023-01-19T12:58:57;3.80;;;1.88;;
32780;SDS011;19136;47.032;15.502;2023-01-19T13:01:23;4.55;;;1.65;;
32780;SDS011;19136;47.032;15.502;2023-01-19T13:03:58;9.38;;;3.03;;
32780;SDS011;19136;47.032;15.502;2023-01-19T13:14:38;4.00;;;2.67;;
32780;SDS011;19136;47.032;15.502;2023-01-19T13:17:05;6.68;;;3.33;;
32780;SDS011;19136;47.032;15.502;2023-01-19T13:19:41;6.10;;;3.08;;
32780;SDS011;19136;47.032;15.502;2023-01-19T13:22:51;11.15;;;3.00;;
32780;SDS011;19136;47.032;15.502;2023-01-19T13:25:04;5.95;;;2.95;;
32780;SDS011;19136;47.032;15.502;2023-01-19T13:27:30;5.22;;;2.75;;
32780;SDS011;19136;47.032;15.502;2023-01-19T13:29:55;6.18;;;2.50;;
32780;SDS011;19136;47.032;15.502;2023-01-19T13:32:21;5.93;;;3.03;;
32780;SDS011;19136;47.032;15.502;2023-01-19T13:34:53;6.25;;;3.17;;
32780;SDS011;19136;47.032;15.502;2023-01-19T13:37:22;19.17;;;7.75;;
32780;SDS011;19136;47.032;15.502;2023-01-19T13:39:48;16.98;;;6.60;;
32780;SDS011;19136;47.032;15.502;2023-01-19T13:42:25;16.67;;;5.13;;
32780;SDS011;19136;47.032;15.502;2023-01-19T13:44:52;8.00;;;4.30;;
32780;SDS011;19136;47.032;15.502;2023-01-19T13:47:23;6.75;;;3.45;;
32780;SDS011;19136;47.032;15.502;2023-01-19T13:49:50;7.43;;;3.35;;
32780;SDS011;19136;47.032;15.502;2023-01-19T13:52:23;6.95;;;3.95;;
32780;SDS011;19136;47.032;15.502;2023-01-19T13:54:56;6.70;;;3.47;;
32780;SDS011;19136;47.032;15.502;2023-01-19T14:00:04;4.95;;;3.00;;
32780;SDS011;19136;47.032;15.502;2023-01-19T14:02:31;6.72;;;2.90;;
32780;SDS011;19136;47.032;15.502;2023-01-19T14:04:56;8.18;;;2.92;;
32780;SDS011;19136;47.032;15.502;2023-01-19T14:07:21;7.05;;;2.65;;
32780;SDS011;19136;47.032;15.502;2023-01-19T14:10:03;7.93;;;3.35;;
32780;SDS011;19136;47.032;15.502;2023-01-19T14:12:29;6.60;;;3.47;;
32780;SDS011;19136;47.032;15.502;2023-01-19T14:14:56;7.13;;;4.00;;
32780;SDS011;19136;47.032;15.502;2023-01-19T14:17:23;10.60;;;4.03;;
32780;SDS011;19136;47.032;15.502;2023-01-19T14:19:49;9.00;;;3.80;;
32780;SDS011;19136;47.032;15.502;2023-01-19T14:22:16;10.15;;;5.18;;
32780;SDS011;19136;47.032;15.502;2023-01-19T14:24:41;6.95;;;3.70;;
32780;SDS011;19136;47.032;15.502;2023-01-19T14:27:08;9.98;;;5.15;;
32780;SDS011;19136;47.032;15.502;2023-01-19T14:29:34;9.02;;;4.75;;
32780;SDS011;19136;47.032;15.502;2023-01-19T14:34:39;7.28;;;3.78;;
32780;SDS011;19136;47.032;15.502;2023-01-19T14:37:18;6.30;;;3.75;;
32780;SDS011;19136;47.032;15.502;2023-01-19T14:39:45;6.22;;;3.70;;
32780;SDS011;19136;47.032;15.502;2023-01-19T14:42:13;5.85;;;3.67;;
32780;SDS011;19136;47.032;15.502;2023-01-19T14:44:40;7.43;;;4.00;;
32780;SDS011;19136;47.032;15.502;2023-01-19T14:47:43;6.88;;;4.22;;
32780;SDS011;19136;47.032;15.502;2023-01-19T14:50:02;7.60;;;4.05;;
32780;SDS011;19136;47.032;15.502;2023-01-19T14:52:38;8.23;;;4.25;;
32780;SDS011;19136;47.032;15.502;2023-01-19T14:55:06;8.30;;;3.92;;
32780;SDS011;19136;47.032;15.502;2023-01-19T14:57:32;8.10;;;4.68;;
32780;SDS011;19136;47.032;15.502;2023-01-19T14:59:58;10.23;;;5.25;;
32780;SDS011;19136;47.032;15.502;2023-01-19T15:02:23;6.90;;;4.57;;
32780;SDS011;19136;47.032;15.502;2023-01-19T15:04:48;8.88;;;4.05;;
32780;SDS011;19136;47.032;15.502;2023-01-19T15:07:18;6.95;;;4.07;;
32780;SDS011;19136;47.032;15.502;2023-01-19T15:09:44;7.00;;;3.92;;
32780;SDS011;19136;47.032;15.502;2023-01-19T15:12:10;9.80;;;3.97;;
32780;SDS011;19136;47.032;15.502;2023-01-19T15:14:36;8.80;;;4.68;;
32780;SDS011;19136;47.032;15.502;2023-01-19T15:17:02;14.68;;;5.80;;
32780;SDS011;19136;47.032;15.502;2023-01-19T15:19:27;10.98;;;5.80;;
32780;SDS011;19136;47.032;15.502;2023-01-19T15:21:52;9.18;;;5.22;;
32780;SDS011;19136;47.032;15.502;2023-01-19T15:24:18;10.80;;;5.78;;
32780;SDS011;19136;47.032;15.502;2023-01-19T15:26:43;11.65;;;5.25;;
32780;SDS011;19136;47.032;15.502;2023-01-19T15:29:15;12.90;;;7.20;;
32780;SDS011;19136;47.032;15.502;2023-01-19T15:31:42;12.15;;;7.03;;
32780;SDS011;19136;47.032;15.502;2023-01-19T15:34:08;9.48;;;6.45;;
32780;SDS011;19136;47.032;15.502;2023-01-19T15:36:35;9.18;;;5.57;;
32780;SDS011;19136;47.032;15.502;2023-01-19T15:39:00;10.10;;;6.05;;
32780;SDS011;19136;47.032;15.502;2023-01-19T15:41:26;10.88;;;5.35;;
32780;SDS011;19136;47.032;15.502;2023-01-19T15:43:53;9.48;;;5.63;;
32780;SDS011;19136;47.032;15.502;2023-01-19T15:46:19;11.10;;;6.85;;
32780;SDS011;19136;47.032;15.502;2023-01-19T15:48:45;13.02;;;6.80;;